sensor_id;sensor_type;location;lat;lon;timestamp;P1;durP1;ratioP1;P2;durP2;ratioP2
62289;SDS011;48284;46.828;29.480;2022-10-17T00:01:11;5.63;;;2.70;;
62289;SDS011;48284;46.828;29.480;2022-10-17T00:03:40;3.97;;;2.72;;
62289;SDS011;48284;46.828;29.480;2022-10-17T00:06:09;7.32;;;3.10;;
62289;SDS011;48284;46.828;29.480;2022-10-17T00:08:40;6.10;;;2.83;;
62289;SDS011;48284;46.828;29.480;2022-10-17T00:11:12;5.10;;;2.90;;
62289;SDS011;48284;46.828;29.480;2022-10-17T00:13:44;4.43;;;2.67;;
62289;SDS011;48284;46.828;29.480;2022-10-17T00:16:14;3.50;;;2.70;;
62289;SDS011;48284;46.828;29.480;2022-10-17T00:18:49;3.53;;;2.47;;
62289;SDS011;48284;46.828;29.480;2022-10-17T00:21:18;4.55;;;2.63;;
62289;SDS011;48284;46.828;29.480;2022-10-17T00:23:47;5.68;;;2.80;;
62289;SDS011;48284;46.828;29.480;2022-10-17T00:26:16;4.57;;;2.83;;
62289;SDS011;48284;46.828;29.480;2022-10-17T00:28:46;4.45;;;2.70;;
62289;SDS011;48284;46.828;29.480;2022-10-17T00:31:17;4.55;;;3.03;;
62289;SDS011;48284;46.828;29.480;2022-10-17T00:33:48;4.70;;;2.60;;
62289;SDS011;48284;46.828;29.480;2022-10-17T00:36:17;8.38;;;3.10;;
62289;SDS011;48284;46.828;29.480;2022-10-17T00:38:49;4.90;;;2.90;;
62289;SDS011;48284;46.828;29.480;2022-10-17T00:41:19;6.78;;;2.80;;
62289;SDS011;48284;46.828;29.480;2022-10-17T00:43:51;6.88;;;3.67;;
62289;SDS011;48284;46.828;29.480;2022-10-17T00:46:24;5.80;;;2.85;;
62289;SDS011;48284;46.828;29.480;2022-10-17T00:48:54;3.95;;;2.70;;
62289;SDS011;48284;46.828;29.480;2022-10-17T00:51:27;7.07;;;2.70;;
62289;SDS011;48284;46.828;29.480;2022-10-17T00:54:01;9.15;;;3.22;;
62289;SDS011;48284;46.828;29.480;2022-10-17T00:56:30;6.63;;;2.92;;
62289;SDS011;48284;46.828;29.480;2022-10-17T00:58:59;4.95;;;3.17;;
62289;SDS011;48284;46.828;29.480;2022-10-17T01:03:58;3.60;;;2.85;;
62289;SDS011;48284;46.828;29.480;2022-10-17T01:06:27;6.05;;;3.00;;
62289;SDS011;48284;46.828;29.480;2022-10-17T01:08:55;4.40;;;2.67;;
62289;SDS011;48284;46.828;29.480;2022-10-17T01:11:27;5.95;;;3.30;;
62289;SDS011;48284;46.828;29.480;2022-10-17T01:14:05;6.82;;;2.83;;
62289;SDS011;48284;46.828;29.480;2022-10-17T01:16:42;3.90;;;2.55;;
62289;SDS011;48284;46.828;29.480;2022-10-17T01:19:33;5.05;;;2.55;;
62289;SDS011;48284;46.828;29.480;2022-10-17T01:22:13;9.55;;;3.15;;
62289;SDS011;48284;46.828;29.480;2022-10-17T01:24:55;5.57;;;3.17;;
62289;SDS011;48284;46.828;29.480;2022-10-17T01:27:51;5.90;;;3.08;;
62289;SDS011;48284;46.828;29.480;2022-10-17T01:33:32;4.35;;;2.75;;
62289;SDS011;48284;46.828;29.480;2022-10-17T01:36:11;4.78;;;3.00;;
62289;SDS011;48284;46.828;29.480;2022-10-17T01:38:52;5.88;;;3.40;;
62289;SDS011;48284;46.828;29.480;2022-10-17T01:41:26;4.95;;;2.60;;
62289;SDS011;48284;46.828;29.480;2022-10-17T01:44:03;6.05;;;3.03;;
62289;SDS011;48284;46.828;29.480;2022-10-17T01:46:37;5.65;;;3.17;;
62289;SDS011;48284;46.828;29.480;2022-10-17T01:49:08;5.15;;;2.85;;
62289;SDS011;48284;46.828;29.480;2022-10-17T01:51:40;6.50;;;2.70;;
62289;SDS011;48284;46.828;29.480;2022-10-17T01:54:12;5.28;;;3.03;;
62289;SDS011;48284;46.828;29.480;2022-10-17T01:56:45;5.25;;;3.13;;
62289;SDS011;48284;46.828;29.480;2022-10-17T01:59:18;6.07;;;3.20;;
62289;SDS011;48284;46.828;29.480;2022-10-17T02:01:52;4.30;;;2.58;;
62289;SDS011;48284;46.828;29.480;2022-10-17T02:04:23;6.07;;;2.72;;
62289;SDS011;48284;46.828;29.480;2022-10-17T02:09:21;5.80;;;3.13;;
62289;SDS011;48284;46.828;29.480;2022-10-17T02:12:01;4.13;;;2.83;;
62289;SDS011;48284;46.828;29.480;2022-10-17T02:14:53;5.13;;;2.92;;
62289;SDS011;48284;46.828;29.480;2022-10-17T02:17:34;3.90;;;2.70;;
62289;SDS011;48284;46.828;29.480;2022-10-17T02:20:13;4.57;;;2.72;;
62289;SDS011;48284;46.828;29.480;2022-10-17T02:22:48;6.18;;;2.92;;
62289;SDS011;48284;46.828;29.480;2022-10-17T02:25:27;5.25;;;3.10;;
62289;SDS011;48284;46.828;29.480;2022-10-17T02:28:05;7.35;;;3.92;;
62289;SDS011;48284;46.828;29.480;2022-10-17T02:30:42;3.90;;;2.60;;
62289;SDS011;48284;46.828;29.480;2022-10-17T02:33:15;10.45;;;3.60;;
62289;SDS011;48284;46.828;29.480;2022-10-17T02:35:49;5.63;;;3.10;;
62289;SDS011;48284;46.828;29.480;2022-10-17T02:38:21;6.93;;;2.85;;
62289;SDS011;48284;46.828;29.480;2022-10-17T02:40:51;4.47;;;2.95;;
62289;SDS011;48284;46.828;29.480;2022-10-17T02:43:21;6.95;;;3.22;;
62289;SDS011;48284;46.828;29.480;2022-10-17T02:45:51;9.70;;;3.22;;
62289;SDS011;48284;46.828;29.480;2022-10-17T02:48:23;4.68;;;2.83;;
62289;SDS011;48284;46.828;29.480;2022-10-17T02:50:56;6.22;;;3.20;;
62289;SDS011;48284;46.828;29.480;2022-10-17T02:53:34;5.97;;;3.67;;
62289;SDS011;48284;46.828;29.480;2022-10-17T02:56:07;5.97;;;3.35;;
62289;SDS011;48284;46.828;29.480;2022-10-17T02:58:41;4.57;;;3.65;;
62289;SDS011;48284;46.828;29.480;2022-10-17T03:01:13;5.15;;;3.53;;
62289;SDS011;48284;46.828;29.480;2022-10-17T03:03:44;8.63;;;2.95;;
62289;SDS011;48284;46.828;29.480;2022-10-17T03:06:13;7.20;;;3.17;;
62289;SDS011;48284;46.828;29.480;2022-10-17T03:08:44;5.85;;;3.13;;
62289;SDS011;48284;46.828;29.480;2022-10-17T03:11:13;5.32;;;3.38;;
62289;SDS011;48284;46.828;29.480;2022-10-17T03:13:41;4.97;;;3.38;;
62289;SDS011;48284;46.828;29.480;2022-10-17T03:16:10;4.72;;;3.35;;
62289;SDS011;48284;46.828;29.480;2022-10-17T03:18:38;4.60;;;2.90;;
62289;SDS011;48284;46.828;29.480;2022-10-17T03:21:13;5.45;;;3.08;;
62289;SDS011;48284;46.828;29.480;2022-10-17T03:23:42;4.82;;;3.03;;
62289;SDS011;48284;46.828;29.480;2022-10-17T03:26:12;4.95;;;3.28;;
62289;SDS011;48284;46.828;29.480;2022-10-17T03:31:11;5.75;;;3.30;;
62289;SDS011;48284;46.828;29.480;2022-10-17T03:33:43;4.05;;;2.70;;
62289;SDS011;48284;46.828;29.480;2022-10-17T03:36:13;4.45;;;3.25;;
62289;SDS011;48284;46.828;29.480;2022-10-17T03:38:45;5.88;;;3.55;;
62289;SDS011;48284;46.828;29.480;2022-10-17T03:41:16;4.55;;;3.00;;
62289;SDS011;48284;46.828;29.480;2022-10-17T03:43:44;8.15;;;3.20;;
62289;SDS011;48284;46.828;29.480;2022-10-17T03:46:13;6.15;;;3.25;;
62289;SDS011;48284;46.828;29.480;2022-10-17T03:48:47;5.35;;;3.08;;
62289;SDS011;48284;46.828;29.480;2022-10-17T03:51:17;13.50;;;3.58;;
62289;SDS011;48284;46.828;29.480;2022-10-17T03:53:50;6.88;;;3.30;;
62289;SDS011;48284;46.828;29.480;2022-10-17T03:56:19;6.00;;;2.97;;
62289;SDS011;48284;46.828;29.480;2022-10-17T03:59:02;5.10;;;3.13;;
62289;SDS011;48284;46.828;29.480;2022-10-17T04:01:33;6.57;;;3.50;;
62289;SDS011;48284;46.828;29.480;2022-10-17T04:04:02;6.07;;;3.47;;
62289;SDS011;48284;46.828;29.480;2022-10-17T04:06:35;8.90;;;3.00;;
62289;SDS011;48284;46.828;29.480;2022-10-17T04:09:05;7.63;;;3.22;;
62289;SDS011;48284;46.828;29.480;2022-10-17T04:11:56;6.40;;;3.17;;
62289;SDS011;48284;46.828;29.480;2022-10-17T04:14:25;10.88;;;3.70;;
62289;SDS011;48284;46.828;29.480;2022-10-17T04:16:54;12.27;;;4.10;;
62289;SDS011;48284;46.828;29.480;2022-10-17T04:19:24;9.30;;;4.93;;
62289;SDS011;48284;46.828;29.480;2022-10-17T04:21:54;12.13;;;5.18;;
62289;SDS011;48284;46.828;29.480;2022-10-17T04:24:25;13.63;;;7.18;;
62289;SDS011;48284;46.828;29.480;2022-10-17T04:27:02;18.70;;;6.40;;
62289;SDS011;48284;46.828;29.480;2022-10-17T04:29:34;21.02;;;7.68;;
62289;SDS011;48284;46.828;29.480;2022-10-17T04:32:09;14.85;;;6.38;;
62289;SDS011;48284;46.828;29.480;2022-10-17T04:34:57;14.48;;;6.75;;
62289;SDS011;48284;46.828;29.480;2022-10-17T04:37:29;13.10;;;6.25;;
62289;SDS011;48284;46.828;29.480;2022-10-17T04:40:01;18.42;;;7.03;;
62289;SDS011;48284;46.828;29.480;2022-10-17T04:42:31;17.13;;;6.65;;
62289;SDS011;48284;46.828;29.480;2022-10-17T04:45:00;14.13;;;7.07;;
62289;SDS011;48284;46.828;29.480;2022-10-17T04:47:29;12.90;;;6.55;;
62289;SDS011;48284;46.828;29.480;2022-10-17T04:49:57;12.70;;;6.45;;
62289;SDS011;48284;46.828;29.480;2022-10-17T04:52:30;16.42;;;6.15;;
62289;SDS011;48284;46.828;29.480;2022-10-17T04:54:59;14.00;;;6.68;;
62289;SDS011;48284;46.828;29.480;2022-10-17T04:57:28;13.00;;;6.68;;
62289;SDS011;48284;46.828;29.480;2022-10-17T05:02:55;10.00;;;6.05;;
62289;SDS011;48284;46.828;29.480;2022-10-17T05:05:25;13.43;;;5.43;;
62289;SDS011;48284;46.828;29.480;2022-10-17T05:07:56;15.57;;;6.43;;
62289;SDS011;48284;46.828;29.480;2022-10-17T05:10:29;13.43;;;5.93;;
62289;SDS011;48284;46.828;29.480;2022-10-17T05:13:03;9.93;;;5.75;;
62289;SDS011;48284;46.828;29.480;2022-10-17T05:15:32;10.38;;;5.60;;
62289;SDS011;48284;46.828;29.480;2022-10-17T05:18:01;12.30;;;5.70;;
62289;SDS011;48284;46.828;29.480;2022-10-17T05:20:30;14.45;;;6.15;;
62289;SDS011;48284;46.828;29.480;2022-10-17T05:23:01;9.93;;;5.75;;
62289;SDS011;48284;46.828;29.480;2022-10-17T05:25:34;10.80;;;5.53;;
62289;SDS011;48284;46.828;29.480;2022-10-17T05:30:33;13.10;;;5.38;;
62289;SDS011;48284;46.828;29.480;2022-10-17T05:33:06;13.15;;;6.00;;
62289;SDS011;48284;46.828;29.480;2022-10-17T05:35:35;15.18;;;5.32;;
62289;SDS011;48284;46.828;29.480;2022-10-17T05:40:35;10.63;;;5.80;;
62289;SDS011;48284;46.828;29.480;2022-10-17T05:43:05;12.02;;;5.55;;
62289;SDS011;48284;46.828;29.480;2022-10-17T05:48:05;10.00;;;5.50;;
62289;SDS011;48284;46.828;29.480;2022-10-17T05:50:34;11.65;;;5.28;;
62289;SDS011;48284;46.828;29.480;2022-10-17T05:53:10;10.27;;;5.15;;
62289;SDS011;48284;46.828;29.480;2022-10-17T05:55:44;12.63;;;5.60;;
62289;SDS011;48284;46.828;29.480;2022-10-17T05:58:13;8.82;;;5.38;;
62289;SDS011;48284;46.828;29.480;2022-10-17T06:00:58;11.25;;;5.72;;
62289;SDS011;48284;46.828;29.480;2022-10-17T06:03:28;10.18;;;5.25;;
62289;SDS011;48284;46.828;29.480;2022-10-17T06:06:03;14.35;;;5.80;;
62289;SDS011;48284;46.828;29.480;2022-10-17T06:08:37;8.57;;;4.78;;
62289;SDS011;48284;46.828;29.480;2022-10-17T06:11:09;13.07;;;5.18;;
62289;SDS011;48284;46.828;29.480;2022-10-17T06:13:37;13.95;;;5.15;;
62289;SDS011;48284;46.828;29.480;2022-10-17T06:16:12;12.82;;;4.45;;
62289;SDS011;48284;46.828;29.480;2022-10-17T06:18:41;10.98;;;5.30;;
62289;SDS011;48284;46.828;29.480;2022-10-17T06:21:11;9.70;;;5.15;;
62289;SDS011;48284;46.828;29.480;2022-10-17T06:23:48;9.10;;;5.00;;
62289;SDS011;48284;46.828;29.480;2022-10-17T06:26:24;10.23;;;4.68;;
62289;SDS011;48284;46.828;29.480;2022-10-17T06:28:52;6.60;;;4.53;;
62289;SDS011;48284;46.828;29.480;2022-10-17T06:31:22;9.05;;;4.93;;
62289;SDS011;48284;46.828;29.480;2022-10-17T06:33:50;10.68;;;4.22;;
62289;SDS011;48284;46.828;29.480;2022-10-17T06:36:19;11.45;;;4.82;;
62289;SDS011;48284;46.828;29.480;2022-10-17T06:38:50;12.52;;;5.55;;
62289;SDS011;48284;46.828;29.480;2022-10-17T06:41:26;9.63;;;4.68;;
62289;SDS011;48284;46.828;29.480;2022-10-17T06:44:02;9.45;;;5.35;;
62289;SDS011;48284;46.828;29.480;2022-10-17T06:46:55;11.15;;;4.55;;
62289;SDS011;48284;46.828;29.480;2022-10-17T06:49:25;9.32;;;4.82;;
62289;SDS011;48284;46.828;29.480;2022-10-17T06:52:06;10.55;;;5.35;;
62289;SDS011;48284;46.828;29.480;2022-10-17T06:54:56;8.30;;;4.65;;
62289;SDS011;48284;46.828;29.480;2022-10-17T06:57:30;11.85;;;5.30;;
62289;SDS011;48284;46.828;29.480;2022-10-17T07:00:28;10.45;;;5.20;;
62289;SDS011;48284;46.828;29.480;2022-10-17T07:02:57;11.20;;;4.90;;
62289;SDS011;48284;46.828;29.480;2022-10-17T07:05:25;7.03;;;4.43;;
62289;SDS011;48284;46.828;29.480;2022-10-17T07:07:54;10.57;;;5.72;;
62289;SDS011;48284;46.828;29.480;2022-10-17T07:10:24;9.45;;;5.00;;
62289;SDS011;48284;46.828;29.480;2022-10-17T07:12:53;8.70;;;4.70;;
62289;SDS011;48284;46.828;29.480;2022-10-17T07:15:21;11.23;;;5.45;;
62289;SDS011;48284;46.828;29.480;2022-10-17T07:17:50;10.57;;;6.03;;
62289;SDS011;48284;46.828;29.480;2022-10-17T07:20:19;13.52;;;5.50;;
62289;SDS011;48284;46.828;29.480;2022-10-17T07:22:48;8.20;;;5.00;;
62289;SDS011;48284;46.828;29.480;2022-10-17T07:25:17;8.88;;;4.85;;
62289;SDS011;48284;46.828;29.480;2022-10-17T07:27:55;10.85;;;5.32;;
62289;SDS011;48284;46.828;29.480;2022-10-17T07:30:23;10.35;;;5.38;;
62289;SDS011;48284;46.828;29.480;2022-10-17T07:33:00;9.93;;;5.22;;
62289;SDS011;48284;46.828;29.480;2022-10-17T07:35:30;9.70;;;4.65;;
62289;SDS011;48284;46.828;29.480;2022-10-17T07:37:58;10.00;;;4.65;;
62289;SDS011;48284;46.828;29.480;2022-10-17T07:40:27;15.57;;;4.97;;
62289;SDS011;48284;46.828;29.480;2022-10-17T07:42:57;9.70;;;4.85;;
62289;SDS011;48284;46.828;29.480;2022-10-17T07:45:26;10.00;;;5.32;;
62289;SDS011;48284;46.828;29.480;2022-10-17T07:47:56;9.65;;;5.15;;
62289;SDS011;48284;46.828;29.480;2022-10-17T07:50:25;8.70;;;4.80;;
62289;SDS011;48284;46.828;29.480;2022-10-17T07:52:53;9.88;;;4.80;;
62289;SDS011;48284;46.828;29.480;2022-10-17T07:55:22;10.52;;;5.47;;
62289;SDS011;48284;46.828;29.480;2022-10-17T07:57:50;10.02;;;5.15;;
62289;SDS011;48284;46.828;29.480;2022-10-17T08:00:20;10.70;;;5.15;;
62289;SDS011;48284;46.828;29.480;2022-10-17T08:02:48;9.57;;;4.55;;
62289;SDS011;48284;46.828;29.480;2022-10-17T08:05:17;7.82;;;4.20;;
62289;SDS011;48284;46.828;29.480;2022-10-17T08:07:46;9.85;;;4.68;;
62289;SDS011;48284;46.828;29.480;2022-10-17T08:10:15;15.23;;;6.90;;
62289;SDS011;48284;46.828;29.480;2022-10-17T08:12:43;8.07;;;4.70;;
62289;SDS011;48284;46.828;29.480;2022-10-17T08:15:12;13.57;;;5.18;;
62289;SDS011;48284;46.828;29.480;2022-10-17T08:17:42;7.75;;;4.10;;
62289;SDS011;48284;46.828;29.480;2022-10-17T08:20:10;8.93;;;4.85;;
62289;SDS011;48284;46.828;29.480;2022-10-17T08:22:39;9.13;;;4.95;;
62289;SDS011;48284;46.828;29.480;2022-10-17T08:25:08;10.65;;;5.25;;
62289;SDS011;48284;46.828;29.480;2022-10-17T08:27:37;10.45;;;4.47;;
62289;SDS011;48284;46.828;29.480;2022-10-17T08:30:06;9.30;;;4.50;;
62289;SDS011;48284;46.828;29.480;2022-10-17T08:32:35;7.43;;;4.53;;
62289;SDS011;48284;46.828;29.480;2022-10-17T08:35:06;8.50;;;4.78;;
62289;SDS011;48284;46.828;29.480;2022-10-17T08:37:35;13.00;;;4.57;;
62289;SDS011;48284;46.828;29.480;2022-10-17T08:40:04;9.13;;;4.60;;
62289;SDS011;48284;46.828;29.480;2022-10-17T08:45:42;10.38;;;4.30;;
62289;SDS011;48284;46.828;29.480;2022-10-17T08:48:16;11.85;;;4.60;;
62289;SDS011;48284;46.828;29.480;2022-10-17T08:50:49;7.20;;;4.40;;
62289;SDS011;48284;46.828;29.480;2022-10-17T08:53:20;10.05;;;4.20;;
62289;SDS011;48284;46.828;29.480;2022-10-17T08:55:54;7.30;;;4.32;;
62289;SDS011;48284;46.828;29.480;2022-10-17T08:58:24;6.80;;;4.22;;
62289;SDS011;48284;46.828;29.480;2022-10-17T09:00:58;9.20;;;4.22;;
62289;SDS011;48284;46.828;29.480;2022-10-17T09:03:44;7.60;;;4.22;;
62289;SDS011;48284;46.828;29.480;2022-10-17T09:06:24;7.43;;;4.47;;
62289;SDS011;48284;46.828;29.480;2022-10-17T09:09:00;7.45;;;4.45;;
62289;SDS011;48284;46.828;29.480;2022-10-17T09:11:42;9.63;;;4.35;;
62289;SDS011;48284;46.828;29.480;2022-10-17T09:14:26;8.15;;;5.05;;
62289;SDS011;48284;46.828;29.480;2022-10-17T09:17:07;11.23;;;5.35;;
62289;SDS011;48284;46.828;29.480;2022-10-17T09:19:44;15.68;;;6.32;;
62289;SDS011;48284;46.828;29.480;2022-10-17T09:22:23;14.60;;;6.57;;
62289;SDS011;48284;46.828;29.480;2022-10-17T09:24:56;13.98;;;6.25;;
62289;SDS011;48284;46.828;29.480;2022-10-17T09:27:31;12.80;;;6.00;;
62289;SDS011;48284;46.828;29.480;2022-10-17T09:30:12;17.52;;;7.28;;
62289;SDS011;48284;46.828;29.480;2022-10-17T09:33:10;15.15;;;6.28;;
62289;SDS011;48284;46.828;29.480;2022-10-17T09:36:00;15.15;;;6.10;;
62289;SDS011;48284;46.828;29.480;2022-10-17T09:38:35;14.13;;;5.93;;
62289;SDS011;48284;46.828;29.480;2022-10-17T09:41:12;16.27;;;6.43;;
62289;SDS011;48284;46.828;29.480;2022-10-17T09:44:10;13.63;;;6.13;;
62289;SDS011;48284;46.828;29.480;2022-10-17T09:46:49;18.23;;;6.15;;
62289;SDS011;48284;46.828;29.480;2022-10-17T09:49:28;15.70;;;6.00;;
62289;SDS011;48284;46.828;29.480;2022-10-17T09:52:00;13.73;;;6.03;;
62289;SDS011;48284;46.828;29.480;2022-10-17T09:54:35;17.60;;;5.93;;
62289;SDS011;48284;46.828;29.480;2022-10-17T09:57:09;14.30;;;5.77;;
62289;SDS011;48284;46.828;29.480;2022-10-17T09:59:39;18.17;;;6.18;;
62289;SDS011;48284;46.828;29.480;2022-10-17T10:02:14;13.60;;;5.65;;
62289;SDS011;48284;46.828;29.480;2022-10-17T10:04:55;13.15;;;5.70;;
62289;SDS011;48284;46.828;29.480;2022-10-17T10:07:30;11.65;;;5.10;;
62289;SDS011;48284;46.828;29.480;2022-10-17T10:10:03;14.10;;;5.45;;
62289;SDS011;48284;46.828;29.480;2022-10-17T10:12:34;13.32;;;6.15;;
62289;SDS011;48284;46.828;29.480;2022-10-17T10:17:59;13.15;;;5.78;;
62289;SDS011;48284;46.828;29.480;2022-10-17T10:20:29;14.52;;;5.88;;
62289;SDS011;48284;46.828;29.480;2022-10-17T10:23:04;9.98;;;5.13;;
62289;SDS011;48284;46.828;29.480;2022-10-17T10:25:35;13.30;;;5.20;;
62289;SDS011;48284;46.828;29.480;2022-10-17T10:28:08;12.48;;;5.38;;
62289;SDS011;48284;46.828;29.480;2022-10-17T10:30:37;16.77;;;5.10;;
62289;SDS011;48284;46.828;29.480;2022-10-17T10:33:09;10.25;;;5.15;;
62289;SDS011;48284;46.828;29.480;2022-10-17T10:35:38;11.57;;;5.10;;
62289;SDS011;48284;46.828;29.480;2022-10-17T10:38:08;12.40;;;4.88;;
62289;SDS011;48284;46.828;29.480;2022-10-17T10:40:45;9.98;;;4.53;;
62289;SDS011;48284;46.828;29.480;2022-10-17T10:43:20;11.52;;;5.22;;
62289;SDS011;48284;46.828;29.480;2022-10-17T10:45:52;8.25;;;4.85;;
62289;SDS011;48284;46.828;29.480;2022-10-17T10:48:21;9.10;;;5.05;;
62289;SDS011;48284;46.828;29.480;2022-10-17T10:50:51;13.73;;;5.50;;
62289;SDS011;48284;46.828;29.480;2022-10-17T10:53:28;9.05;;;4.68;;
62289;SDS011;48284;46.828;29.480;2022-10-17T10:56:07;11.23;;;5.30;;
62289;SDS011;48284;46.828;29.480;2022-10-17T10:58:41;10.18;;;4.68;;
62289;SDS011;48284;46.828;29.480;2022-10-17T11:01:21;15.82;;;5.22;;
62289;SDS011;48284;46.828;29.480;2022-10-17T11:04:00;9.70;;;4.77;;
62289;SDS011;48284;46.828;29.480;2022-10-17T11:06:40;10.55;;;4.80;;
62289;SDS011;48284;46.828;29.480;2022-10-17T11:09:13;9.43;;;4.47;;
62289;SDS011;48284;46.828;29.480;2022-10-17T11:11:59;11.55;;;4.85;;
62289;SDS011;48284;46.828;29.480;2022-10-17T11:14:37;11.18;;;4.72;;
62289;SDS011;48284;46.828;29.480;2022-10-17T11:19:46;10.30;;;4.30;;
62289;SDS011;48284;46.828;29.480;2022-10-17T11:22:20;8.70;;;4.32;;
62289;SDS011;48284;46.828;29.480;2022-10-17T11:24:55;9.68;;;4.88;;
62289;SDS011;48284;46.828;29.480;2022-10-17T11:27:29;8.80;;;4.43;;
62289;SDS011;48284;46.828;29.480;2022-10-17T11:30:00;11.27;;;4.82;;
62289;SDS011;48284;46.828;29.480;2022-10-17T11:32:32;9.55;;;4.10;;
62289;SDS011;48284;46.828;29.480;2022-10-17T11:35:05;11.18;;;4.45;;
62289;SDS011;48284;46.828;29.480;2022-10-17T11:40:15;9.00;;;4.50;;
62289;SDS011;48284;46.828;29.480;2022-10-17T11:42:52;7.50;;;4.43;;
62289;SDS011;48284;46.828;29.480;2022-10-17T11:45:26;11.15;;;4.53;;
62289;SDS011;48284;46.828;29.480;2022-10-17T11:47:59;9.45;;;4.43;;
62289;SDS011;48284;46.828;29.480;2022-10-17T11:50:32;10.45;;;4.57;;
62289;SDS011;48284;46.828;29.480;2022-10-17T11:53:23;11.95;;;4.68;;
62289;SDS011;48284;46.828;29.480;2022-10-17T11:55:56;14.95;;;4.65;;
62289;SDS011;48284;46.828;29.480;2022-10-17T11:58:31;11.98;;;4.25;;
62289;SDS011;48284;46.828;29.480;2022-10-17T12:01:08;11.40;;;4.35;;
62289;SDS011;48284;46.828;29.480;2022-10-17T12:03:50;9.60;;;4.93;;
62289;SDS011;48284;46.828;29.480;2022-10-17T12:06:34;13.32;;;4.43;;
62289;SDS011;48284;46.828;29.480;2022-10-17T12:09:10;12.20;;;4.60;;
62289;SDS011;48284;46.828;29.480;2022-10-17T12:11:51;12.88;;;4.80;;
62289;SDS011;48284;46.828;29.480;2022-10-17T12:14:37;9.15;;;4.38;;
62289;SDS011;48284;46.828;29.480;2022-10-17T12:20:23;9.45;;;4.40;;
62289;SDS011;48284;46.828;29.480;2022-10-17T12:22:54;8.43;;;4.15;;
62289;SDS011;48284;46.828;29.480;2022-10-17T12:25:25;9.18;;;4.00;;
62289;SDS011;48284;46.828;29.480;2022-10-17T12:28:10;9.07;;;3.97;;
62289;SDS011;48284;46.828;29.480;2022-10-17T12:30:50;9.90;;;4.05;;
62289;SDS011;48284;46.828;29.480;2022-10-17T12:33:22;8.00;;;4.10;;
62289;SDS011;48284;46.828;29.480;2022-10-17T12:42:29;9.27;;;4.05;;
62289;SDS011;48284;46.828;29.480;2022-10-17T12:44:59;12.07;;;4.20;;
62289;SDS011;48284;46.828;29.480;2022-10-17T12:47:36;9.43;;;4.32;;
62289;SDS011;48284;46.828;29.480;2022-10-17T12:53:10;7.88;;;3.85;;
62289;SDS011;48284;46.828;29.480;2022-10-17T12:55:45;10.32;;;4.10;;
62289;SDS011;48284;46.828;29.480;2022-10-17T12:58:17;11.63;;;4.05;;
62289;SDS011;48284;46.828;29.480;2022-10-17T13:00:47;15.43;;;4.55;;
62289;SDS011;48284;46.828;29.480;2022-10-17T13:03:42;8.73;;;3.85;;
62289;SDS011;48284;46.828;29.480;2022-10-17T13:06:14;8.40;;;4.22;;
62289;SDS011;48284;46.828;29.480;2022-10-17T13:08:48;10.23;;;4.13;;
62289;SDS011;48284;46.828;29.480;2022-10-17T13:11:30;6.78;;;3.72;;
62289;SDS011;48284;46.828;29.480;2022-10-17T13:14:01;10.57;;;4.20;;
62289;SDS011;48284;46.828;29.480;2022-10-17T13:16:38;8.98;;;4.00;;
62289;SDS011;48284;46.828;29.480;2022-10-17T13:19:13;8.65;;;4.50;;
62289;SDS011;48284;46.828;29.480;2022-10-17T13:21:48;9.88;;;3.72;;
62289;SDS011;48284;46.828;29.480;2022-10-17T13:24:21;10.20;;;4.00;;
62289;SDS011;48284;46.828;29.480;2022-10-17T13:26:55;6.55;;;3.83;;
62289;SDS011;48284;46.828;29.480;2022-10-17T13:29:25;8.15;;;3.67;;
62289;SDS011;48284;46.828;29.480;2022-10-17T13:31:57;6.85;;;3.90;;
62289;SDS011;48284;46.828;29.480;2022-10-17T13:34:31;6.43;;;3.55;;
62289;SDS011;48284;46.828;29.480;2022-10-17T13:37:02;6.97;;;4.13;;
62289;SDS011;48284;46.828;29.480;2022-10-17T13:39:33;6.53;;;3.75;;
62289;SDS011;48284;46.828;29.480;2022-10-17T13:42:26;6.43;;;3.40;;
62289;SDS011;48284;46.828;29.480;2022-10-17T13:44:56;8.70;;;3.53;;
62289;SDS011;48284;46.828;29.480;2022-10-17T13:47:26;10.40;;;3.47;;
62289;SDS011;48284;46.828;29.480;2022-10-17T13:49:59;6.43;;;3.72;;
62289;SDS011;48284;46.828;29.480;2022-10-17T13:52:28;8.15;;;4.13;;
62289;SDS011;48284;46.828;29.480;2022-10-17T13:55:05;7.75;;;4.20;;
62289;SDS011;48284;46.828;29.480;2022-10-17T13:57:39;7.97;;;4.13;;
62289;SDS011;48284;46.828;29.480;2022-10-17T14:00:10;9.65;;;4.18;;
62289;SDS011;48284;46.828;29.480;2022-10-17T14:02:46;6.05;;;3.50;;
62289;SDS011;48284;46.828;29.480;2022-10-17T14:05:17;7.63;;;3.45;;
62289;SDS011;48284;46.828;29.480;2022-10-17T14:07:50;6.88;;;3.58;;
62289;SDS011;48284;46.828;29.480;2022-10-17T14:10:40;7.55;;;3.40;;
62289;SDS011;48284;46.828;29.480;2022-10-17T14:13:17;8.48;;;4.22;;
62289;SDS011;48284;46.828;29.480;2022-10-17T14:15:49;7.82;;;3.78;;
62289;SDS011;48284;46.828;29.480;2022-10-17T14:18:19;8.40;;;3.80;;
62289;SDS011;48284;46.828;29.480;2022-10-17T14:20:53;4.75;;;3.40;;
62289;SDS011;48284;46.828;29.480;2022-10-17T14:23:42;4.60;;;3.40;;
62289;SDS011;48284;46.828;29.480;2022-10-17T14:26:12;7.80;;;3.72;;
62289;SDS011;48284;46.828;29.480;2022-10-17T14:28:43;9.60;;;3.40;;
62289;SDS011;48284;46.828;29.480;2022-10-17T14:31:21;6.22;;;3.50;;
62289;SDS011;48284;46.828;29.480;2022-10-17T14:33:56;6.25;;;3.78;;
62289;SDS011;48284;46.828;29.480;2022-10-17T14:36:32;5.63;;;3.80;;
62289;SDS011;48284;46.828;29.480;2022-10-17T14:39:04;6.38;;;3.30;;
62289;SDS011;48284;46.828;29.480;2022-10-17T14:41:41;6.45;;;3.42;;
62289;SDS011;48284;46.828;29.480;2022-10-17T14:44:17;6.32;;;3.72;;
62289;SDS011;48284;46.828;29.480;2022-10-17T14:46:50;5.57;;;3.33;;
62289;SDS011;48284;46.828;29.480;2022-10-17T14:49:25;5.75;;;3.20;;
62289;SDS011;48284;46.828;29.480;2022-10-17T14:52:21;4.15;;;3.05;;
62289;SDS011;48284;46.828;29.480;2022-10-17T14:54:53;6.82;;;3.50;;
62289;SDS011;48284;46.828;29.480;2022-10-17T14:57:23;5.45;;;3.33;;
62289;SDS011;48284;46.828;29.480;2022-10-17T14:59:54;7.70;;;4.35;;
62289;SDS011;48284;46.828;29.480;2022-10-17T15:02:23;8.10;;;3.75;;
62289;SDS011;48284;46.828;29.480;2022-10-17T15:04:53;6.05;;;3.75;;
62289;SDS011;48284;46.828;29.480;2022-10-17T15:07:23;5.47;;;3.35;;
62289;SDS011;48284;46.828;29.480;2022-10-17T15:09:52;5.80;;;3.67;;
62289;SDS011;48284;46.828;29.480;2022-10-17T15:12:21;6.50;;;4.20;;
62289;SDS011;48284;46.828;29.480;2022-10-17T15:14:51;9.32;;;4.15;;
62289;SDS011;48284;46.828;29.480;2022-10-17T15:17:21;5.53;;;3.55;;
62289;SDS011;48284;46.828;29.480;2022-10-17T15:19:51;8.10;;;4.65;;
62289;SDS011;48284;46.828;29.480;2022-10-17T15:22:20;9.43;;;4.07;;
62289;SDS011;48284;46.828;29.480;2022-10-17T15:24:50;6.22;;;3.88;;
62289;SDS011;48284;46.828;29.480;2022-10-17T15:27:20;8.80;;;4.32;;
62289;SDS011;48284;46.828;29.480;2022-10-17T15:29:50;11.98;;;3.95;;
62289;SDS011;48284;46.828;29.480;2022-10-17T15:32:18;7.47;;;3.63;;
62289;SDS011;48284;46.828;29.480;2022-10-17T15:34:47;12.63;;;4.60;;
62289;SDS011;48284;46.828;29.480;2022-10-17T15:37:16;9.13;;;4.60;;
62289;SDS011;48284;46.828;29.480;2022-10-17T15:39:48;10.27;;;4.00;;
62289;SDS011;48284;46.828;29.480;2022-10-17T15:42:21;9.05;;;4.03;;
62289;SDS011;48284;46.828;29.480;2022-10-17T15:44:55;6.18;;;3.75;;
62289;SDS011;48284;46.828;29.480;2022-10-17T15:47:25;6.97;;;4.22;;
62289;SDS011;48284;46.828;29.480;2022-10-17T15:49:57;9.38;;;4.63;;